sensor_id;sensor_type;location;lat;lon;timestamp;temperature;humidity
3846;DHT22;1938;50.812;7.738;2024-02-21T00:01:23;6.30;1.00
3846;DHT22;1938;50.812;7.738;2024-02-21T00:03:48;6.30;1.00
3846;DHT22;1938;50.812;7.738;2024-02-21T00:06:14;6.30;1.00
3846;DHT22;1938;50.812;7.738;2024-02-21T00:08:39;6.30;1.00
3846;DHT22;1938;50.812;7.738;2024-02-21T00:11:05;6.30;99.90
3846;DHT22;1938;50.812;7.738;2024-02-21T00:13:31;6.30;1.00
3846;DHT22;1938;50.812;7.738;2024-02-21T00:15:56;6.30;1.00
3846;DHT22;1938;50.812;7.738;2024-02-21T00:18:22;6.30;1.00
3846;DHT22;1938;50.812;7.738;2024-02-21T00:20:48;6.40;99.90
3846;DHT22;1938;50.812;7.738;2024-02-21T00:23:13;6.30;99.90
3846;DHT22;1938;50.812;7.738;2024-02-21T00:25:39;6.30;99.90
3846;DHT22;1938;50.812;7.738;2024-02-21T00:28:05;6.30;99.90
3846;DHT22;1938;50.812;7.738;2024-02-21T00:30:31;6.30;1.00
3846;DHT22;1938;50.812;7.738;2024-02-21T00:32:57;6.40;1.00
3846;DHT22;1938;50.812;7.738;2024-02-21T00:35:22;6.40;1.00
3846;DHT22;1938;50.812;7.738;2024-02-21T00:37:48;6.40;1.00
3846;DHT22;1938;50.812;7.738;2024-02-21T00:40:14;6.40;99.90
3846;DHT22;1938;50.812;7.738;2024-02-21T00:42:45;6.40;1.00
3846;DHT22;1938;50.812;7.738;2024-02-21T00:45:11;6.40;1.00
3846;DHT22;1938;50.812;7.738;2024-02-21T00:47:36;6.40;1.00
3846;DHT22;1938;50.812;7.738;2024-02-21T00:50:02;6.40;1.00
3846;DHT22;1938;50.812;7.738;2024-02-21T00:52:28;6.30;1.00
3846;DHT22;1938;50.812;7.738;2024-02-21T00:54:53;6.30;41.10
3846;DHT22;1938;50.812;7.738;2024-02-21T00:57:19;6.30;51.40
3846;DHT22;1938;50.812;7.738;2024-02-21T00:59:45;6.30;99.90
3846;DHT22;1938;50.812;7.738;2024-02-21T01:02:10;6.30;99.90
3846;DHT22;1938;50.812;7.738;2024-02-21T01:04:36;6.30;99.90
3846;DHT22;1938;50.812;7.738;2024-02-21T01:07:02;6.30;99.90
3846;DHT22;1938;50.812;7.738;2024-02-21T01:09:27;6.20;99.90
3846;DHT22;1938;50.812;7.738;2024-02-21T01:11:53;6.20;1.00
3846;DHT22;1938;50.812;7.738;2024-02-21T01:14:18;6.20;1.00
3846;DHT22;1938;50.812;7.738;2024-02-21T01:16:44;6.20;1.00
3846;DHT22;1938;50.812;7.738;2024-02-21T01:19:09;6.20;1.00
3846;DHT22;1938;50.812;7.738;2024-02-21T01:21:35;6.20;1.00
3846;DHT22;1938;50.812;7.738;2024-02-21T01:24:00;6.20;1.00
3846;DHT22;1938;50.812;7.738;2024-02-21T01:26:26;6.20;1.00
3846;DHT22;1938;50.812;7.738;2024-02-21T01:28:51;6.20;1.00
3846;DHT22;1938;50.812;7.738;2024-02-21T01:31:17;6.20;1.00
3846;DHT22;1938;50.812;7.738;2024-02-21T01:33:43;6.20;1.00
3846;DHT22;1938;50.812;7.738;2024-02-21T01:36:08;6.20;33.20
3846;DHT22;1938;50.812;7.738;2024-02-21T01:38:34;6.20;1.00
3846;DHT22;1938;50.812;7.738;2024-02-21T01:41:00;6.20;1.00
3846;DHT22;1938;50.812;7.738;2024-02-21T01:43:26;6.20;1.00
3846;DHT22;1938;50.812;7.738;2024-02-21T01:45:55;6.10;99.90
3846;DHT22;1938;50.812;7.738;2024-02-21T01:48:25;6.20;1.00
3846;DHT22;1938;50.812;7.738;2024-02-21T01:50:51;6.20;1.00
3846;DHT22;1938;50.812;7.738;2024-02-21T01:53:20;6.20;1.00
3846;DHT22;1938;50.812;7.738;2024-02-21T01:55:47;6.10;1.00
3846;DHT22;1938;50.812;7.738;2024-02-21T01:58:14;6.20;1.00
3846;DHT22;1938;50.812;7.738;2024-02-21T02:00:42;6.20;3.40
3846;DHT22;1938;50.812;7.738;2024-02-21T02:03:10;6.10;1.00
3846;DHT22;1938;50.812;7.738;2024-02-21T02:05:43;6.20;1.00
3846;DHT22;1938;50.812;7.738;2024-02-21T02:08:08;6.20;1.00
3846;DHT22;1938;50.812;7.738;2024-02-21T02:10:34;6.20;1.00
3846;DHT22;1938;50.812;7.738;2024-02-21T02:13:00;6.20;1.00
3846;DHT22;1938;50.812;7.738;2024-02-21T02:15:26;6.20;1.00
3846;DHT22;1938;50.812;7.738;2024-02-21T02:17:51;6.20;99.90
3846;DHT22;1938;50.812;7.738;2024-02-21T02:20:17;6.20;99.90
3846;DHT22;1938;50.812;7.738;2024-02-21T02:22:43;6.20;1.00
3846;DHT22;1938;50.812;7.738;2024-02-21T02:25:09;6.20;99.90
3846;DHT22;1938;50.812;7.738;2024-02-21T02:27:42;6.20;1.00
3846;DHT22;1938;50.812;7.738;2024-02-21T02:30:10;6.10;1.00
3846;DHT22;1938;50.812;7.738;2024-02-21T02:32:36;6.00;1.00
3846;DHT22;1938;50.812;7.738;2024-02-21T02:35:01;6.10;18.30
3846;DHT22;1938;50.812;7.738;2024-02-21T02:37:27;6.10;1.00
3846;DHT22;1938;50.812;7.738;2024-02-21T02:39:52;6.10;1.00
3846;DHT22;1938;50.812;7.738;2024-02-21T02:42:18;6.00;2.20
3846;DHT22;1938;50.812;7.738;2024-02-21T02:44:44;6.10;32.90
3846;DHT22;1938;50.812;7.738;2024-02-21T02:47:09;6.10;1.00
3846;DHT22;1938;50.812;7.738;2024-02-21T02:49:35;6.10;1.00
3846;DHT22;1938;50.812;7.738;2024-02-21T02:52:00;6.00;37.50
3846;DHT22;1938;50.812;7.738;2024-02-21T02:54:26;5.90;81.80
3846;DHT22;1938;50.812;7.738;2024-02-21T02:56:51;6.00;99.90
3846;DHT22;1938;50.812;7.738;2024-02-21T02:59:17;6.00;99.90
3846;DHT22;1938;50.812;7.738;2024-02-21T03:01:42;6.00;99.90
3846;DHT22;1938;50.812;7.738;2024-02-21T03:04:08;6.10;32.20
3846;DHT22;1938;50.812;7.738;2024-02-21T03:06:33;6.00;99.90
3846;DHT22;1938;50.812;7.738;2024-02-21T03:08:59;6.00;99.90
3846;DHT22;1938;50.812;7.738;2024-02-21T03:11:25;6.00;99.90
3846;DHT22;1938;50.812;7.738;2024-02-21T03:13:55;6.00;57.80
3846;DHT22;1938;50.812;7.738;2024-02-21T03:16:22;6.00;99.90
3846;DHT22;1938;50.812;7.738;2024-02-21T03:18:47;6.00;97.90
3846;DHT22;1938;50.812;7.738;2024-02-21T03:21:13;6.00;99.90
3846;DHT22;1938;50.812;7.738;2024-02-21T03:23:39;5.90;99.90
3846;DHT22;1938;50.812;7.738;2024-02-21T03:26:05;6.00;99.90
3846;DHT22;1938;50.812;7.738;2024-02-21T03:28:30;6.00;99.90
3846;DHT22;1938;50.812;7.738;2024-02-21T03:30:56;6.00;95.40
3846;DHT22;1938;50.812;7.738;2024-02-21T03:33:21;5.90;40.70
3846;DHT22;1938;50.812;7.738;2024-02-21T03:35:48;5.90;99.90
3846;DHT22;1938;50.812;7.738;2024-02-21T03:38:14;6.00;99.90
3846;DHT22;1938;50.812;7.738;2024-02-21T03:40:40;6.00;99.90
3846;DHT22;1938;50.812;7.738;2024-02-21T03:43:05;5.90;99.90
3846;DHT22;1938;50.812;7.738;2024-02-21T03:45:31;6.00;99.90
3846;DHT22;1938;50.812;7.738;2024-02-21T03:47:56;6.00;99.90
3846;DHT22;1938;50.812;7.738;2024-02-21T03:50:22;6.00;87.80
3846;DHT22;1938;50.812;7.738;2024-02-21T03:52:47;6.00;95.80
3846;DHT22;1938;50.812;7.738;2024-02-21T03:55:13;6.00;99.90
3846;DHT22;1938;50.812;7.738;2024-02-21T03:57:38;6.00;99.90
3846;DHT22;1938;50.812;7.738;2024-02-21T04:00:05;6.00;99.90
3846;DHT22;1938;50.812;7.738;2024-02-21T04:02:32;6.00;99.90
3846;DHT22;1938;50.812;7.738;2024-02-21T04:04:57;6.00;99.90
3846;DHT22;1938;50.812;7.738;2024-02-21T04:07:23;6.00;99.90
3846;DHT22;1938;50.812;7.738;2024-02-21T04:09:48;6.00;99.90
3846;DHT22;1938;50.812;7.738;2024-02-21T04:12:14;5.90;99.90
3846;DHT22;1938;50.812;7.738;2024-02-21T04:14:39;5.90;99.90
3846;DHT22;1938;50.812;7.738;2024-02-21T04:17:05;5.90;1.00
3846;DHT22;1938;50.812;7.738;2024-02-21T04:19:31;6.00;1.00
3846;DHT22;1938;50.812;7.738;2024-02-21T04:21:56;6.00;99.90
3846;DHT22;1938;50.812;7.738;2024-02-21T04:24:22;5.90;99.90
3846;DHT22;1938;50.812;7.738;2024-02-21T04:26:47;5.90;99.90
3846;DHT22;1938;50.812;7.738;2024-02-21T04:29:13;5.90;99.90
3846;DHT22;1938;50.812;7.738;2024-02-21T04:31:38;5.90;1.00
3846;DHT22;1938;50.812;7.738;2024-02-21T04:34:06;5.90;1.00
3846;DHT22;1938;50.812;7.738;2024-02-21T04:36:32;6.00;1.00
3846;DHT22;1938;50.812;7.738;2024-02-21T04:38:58;5.90;99.90
3846;DHT22;1938;50.812;7.738;2024-02-21T04:41:24;6.00;1.00
3846;DHT22;1938;50.812;7.738;2024-02-21T04:43:50;5.90;99.90
3846;DHT22;1938;50.812;7.738;2024-02-21T04:46:15;5.90;99.90
3846;DHT22;1938;50.812;7.738;2024-02-21T04:48:41;6.00;99.90
3846;DHT22;1938;50.812;7.738;2024-02-21T04:51:06;5.90;99.90
3846;DHT22;1938;50.812;7.738;2024-02-21T04:53:32;6.00;99.90
3846;DHT22;1938;50.812;7.738;2024-02-21T04:55:57;5.90;99.90
3846;DHT22;1938;50.812;7.738;2024-02-21T04:58:23;5.90;1.00
3846;DHT22;1938;50.812;7.738;2024-02-21T05:00:49;5.90;1.00
3846;DHT22;1938;50.812;7.738;2024-02-21T05:03:14;5.90;1.00
3846;DHT22;1938;50.812;7.738;2024-02-21T05:05:40;6.00;1.00
3846;DHT22;1938;50.812;7.738;2024-02-21T05:08:06;5.90;1.00
3846;DHT22;1938;50.812;7.738;2024-02-21T05:10:31;6.00;1.00
3846;DHT22;1938;50.812;7.738;2024-02-21T05:12:57;6.00;99.90
3846;DHT22;1938;50.812;7.738;2024-02-21T05:15:24;6.10;33.60
3846;DHT22;1938;50.812;7.738;2024-02-21T05:17:49;6.10;1.00
3846;DHT22;1938;50.812;7.738;2024-02-21T05:20:15;6.10;1.00
3846;DHT22;1938;50.812;7.738;2024-02-21T05:22:40;6.10;1.00
3846;DHT22;1938;50.812;7.738;2024-02-21T05:25:06;6.10;99.90
3846;DHT22;1938;50.812;7.738;2024-02-21T05:27:32;6.10;1.00
3846;DHT22;1938;50.812;7.738;2024-02-21T05:29:57;6.10;1.00
3846;DHT22;1938;50.812;7.738;2024-02-21T05:32:23;6.10;99.90
3846;DHT22;1938;50.812;7.738;2024-02-21T05:34:50;6.10;1.00
3846;DHT22;1938;50.812;7.738;2024-02-21T05:37:16;6.00;1.00
3846;DHT22;1938;50.812;7.738;2024-02-21T05:39:41;6.10;1.00
3846;DHT22;1938;50.812;7.738;2024-02-21T05:42:07;6.10;1.00
3846;DHT22;1938;50.812;7.738;2024-02-21T05:44:32;6.00;1.00
3846;DHT22;1938;50.812;7.738;2024-02-21T05:46:58;5.90;28.70
3846;DHT22;1938;50.812;7.738;2024-02-21T05:49:24;6.00;99.90
3846;DHT22;1938;50.812;7.738;2024-02-21T05:51:49;6.00;12.10
3846;DHT22;1938;50.812;7.738;2024-02-21T05:54:15;6.00;95.50
3846;DHT22;1938;50.812;7.738;2024-02-21T05:56:44;6.00;99.90
3846;DHT22;1938;50.812;7.738;2024-02-21T05:59:10;6.00;1.00
3846;DHT22;1938;50.812;7.738;2024-02-21T06:01:35;6.00;33.20
3846;DHT22;1938;50.812;7.738;2024-02-21T06:04:01;6.10;8.10
3846;DHT22;1938;50.812;7.738;2024-02-21T06:06:26;6.00;4.30
3846;DHT22;1938;50.812;7.738;2024-02-21T06:08:52;5.90;51.60
3846;DHT22;1938;50.812;7.738;2024-02-21T06:11:18;6.00;99.90
3846;DHT22;1938;50.812;7.738;2024-02-21T06:13:43;6.00;99.90
3846;DHT22;1938;50.812;7.738;2024-02-21T06:16:09;5.90;99.90
3846;DHT22;1938;50.812;7.738;2024-02-21T06:18:36;5.90;90.00
3846;DHT22;1938;50.812;7.738;2024-02-21T06:21:05;5.90;85.20
3846;DHT22;1938;50.812;7.738;2024-02-21T06:23:31;5.90;99.90
3846;DHT22;1938;50.812;7.738;2024-02-21T06:25:57;5.80;99.90
3846;DHT22;1938;50.812;7.738;2024-02-21T06:28:22;5.80;99.90
3846;DHT22;1938;50.812;7.738;2024-02-21T06:30:48;5.80;99.90
3846;DHT22;1938;50.812;7.738;2024-02-21T06:33:13;5.90;99.90
3846;DHT22;1938;50.812;7.738;2024-02-21T06:35:39;5.90;99.90
3846;DHT22;1938;50.812;7.738;2024-02-21T06:38:06;5.90;99.90
3846;DHT22;1938;50.812;7.738;2024-02-21T06:40:33;5.80;99.90
3846;DHT22;1938;50.812;7.738;2024-02-21T06:43:04;5.90;99.90
3846;DHT22;1938;50.812;7.738;2024-02-21T06:45:29;5.90;1.00
3846;DHT22;1938;50.812;7.738;2024-02-21T06:47:55;5.80;1.00
3846;DHT22;1938;50.812;7.738;2024-02-21T06:50:21;5.80;1.00
3846;DHT22;1938;50.812;7.738;2024-02-21T06:52:46;5.80;42.00
3846;DHT22;1938;50.812;7.738;2024-02-21T06:55:13;6.00;99.90
3846;DHT22;1938;50.812;7.738;2024-02-21T06:57:39;6.10;1.00
3846;DHT22;1938;50.812;7.738;2024-02-21T07:00:05;6.30;99.90
3846;DHT22;1938;50.812;7.738;2024-02-21T07:02:33;6.50;99.90
3846;DHT22;1938;50.812;7.738;2024-02-21T07:04:59;6.60;99.90
3846;DHT22;1938;50.812;7.738;2024-02-21T07:07:24;6.70;1.00
3846;DHT22;1938;50.812;7.738;2024-02-21T07:09:50;6.90;99.90
3846;DHT22;1938;50.812;7.738;2024-02-21T07:12:16;7.00;1.00
3846;DHT22;1938;50.812;7.738;2024-02-21T07:14:42;7.10;1.00
3846;DHT22;1938;50.812;7.738;2024-02-21T07:17:07;7.10;99.90
3846;DHT22;1938;50.812;7.738;2024-02-21T07:19:33;7.20;95.50
3846;DHT22;1938;50.812;7.738;2024-02-21T07:22:00;7.30;1.00
3846;DHT22;1938;50.812;7.738;2024-02-21T07:24:26;7.40;99.90
3846;DHT22;1938;50.812;7.738;2024-02-21T07:26:52;7.40;99.90
3846;DHT22;1938;50.812;7.738;2024-02-21T07:29:18;7.50;99.90
3846;DHT22;1938;50.812;7.738;2024-02-21T07:31:44;7.50;94.90
3846;DHT22;1938;50.812;7.738;2024-02-21T07:34:10;7.60;1.00
3846;DHT22;1938;50.812;7.738;2024-02-21T07:36:36;7.70;1.00
3846;DHT22;1938;50.812;7.738;2024-02-21T07:39:03;7.70;1.00
3846;DHT22;1938;50.812;7.738;2024-02-21T07:41:30;7.80;1.00
3846;DHT22;1938;50.812;7.738;2024-02-21T07:43:56;7.90;1.00
3846;DHT22;1938;50.812;7.738;2024-02-21T07:46:21;7.90;99.90
3846;DHT22;1938;50.812;7.738;2024-02-21T07:48:47;7.90;99.90
3846;DHT22;1938;50.812;7.738;2024-02-21T07:51:13;8.00;99.90
3846;DHT22;1938;50.812;7.738;2024-02-21T07:53:39;8.00;99.90
3846;DHT22;1938;50.812;7.738;2024-02-21T07:56:13;7.90;99.90
3846;DHT22;1938;50.812;7.738;2024-02-21T07:58:40;7.90;99.90
3846;DHT22;1938;50.812;7.738;2024-02-21T08:01:05;7.90;99.90
3846;DHT22;1938;50.812;7.738;2024-02-21T08:03:31;8.00;99.90
3846;DHT22;1938;50.812;7.738;2024-02-21T08:05:57;7.80;99.90
3846;DHT22;1938;50.812;7.738;2024-02-21T08:08:23;7.70;92.50
3846;DHT22;1938;50.812;7.738;2024-02-21T08:10:51;7.00;99.90
3846;DHT22;1938;50.812;7.738;2024-02-21T08:13:19;6.80;1.00
3846;DHT22;1938;50.812;7.738;2024-02-21T08:15:45;6.50;82.20
3846;DHT22;1938;50.812;7.738;2024-02-21T08:18:12;6.40;99.90
3846;DHT22;1938;50.812;7.738;2024-02-21T08:20:37;6.40;99.90
3846;DHT22;1938;50.812;7.738;2024-02-21T08:23:03;6.30;99.90
3846;DHT22;1938;50.812;7.738;2024-02-21T08:25:29;6.30;99.90
3846;DHT22;1938;50.812;7.738;2024-02-21T08:27:57;6.30;99.90
3846;DHT22;1938;50.812;7.738;2024-02-21T08:30:23;6.30;99.90
3846;DHT22;1938;50.812;7.738;2024-02-21T08:32:49;6.30;99.90
3846;DHT22;1938;50.812;7.738;2024-02-21T08:35:15;6.30;99.90
3846;DHT22;1938;50.812;7.738;2024-02-21T08:37:40;6.30;99.90
3846;DHT22;1938;50.812;7.738;2024-02-21T08:40:08;6.30;99.90
3846;DHT22;1938;50.812;7.738;2024-02-21T08:42:35;6.30;99.90
3846;DHT22;1938;50.812;7.738;2024-02-21T08:45:02;6.30;99.90
3846;DHT22;1938;50.812;7.738;2024-02-21T08:47:28;6.30;99.90
3846;DHT22;1938;50.812;7.738;2024-02-21T08:49:53;6.30;99.90
3846;DHT22;1938;50.812;7.738;2024-02-21T08:52:19;6.40;99.90
3846;DHT22;1938;50.812;7.738;2024-02-21T08:54:45;6.40;14.00
3846;DHT22;1938;50.812;7.738;2024-02-21T08:57:10;6.50;9.80
3846;DHT22;1938;50.812;7.738;2024-02-21T08:59:36;6.50;1.00
3846;DHT22;1938;50.812;7.738;2024-02-21T09:02:01;6.50;1.00
3846;DHT22;1938;50.812;7.738;2024-02-21T09:04:29;6.60;1.00
3846;DHT22;1938;50.812;7.738;2024-02-21T09:06:54;6.50;1.00
3846;DHT22;1938;50.812;7.738;2024-02-21T09:09:20;6.60;1.00
3846;DHT22;1938;50.812;7.738;2024-02-21T09:11:45;6.60;1.00
3846;DHT22;1938;50.812;7.738;2024-02-21T09:14:11;6.60;99.90
3846;DHT22;1938;50.812;7.738;2024-02-21T09:16:37;6.60;99.90
3846;DHT22;1938;50.812;7.738;2024-02-21T09:19:03;6.40;1.00
3846;DHT22;1938;50.812;7.738;2024-02-21T09:21:28;6.50;1.00
3846;DHT22;1938;50.812;7.738;2024-02-21T09:23:54;6.50;1.00
3846;DHT22;1938;50.812;7.738;2024-02-21T09:26:20;6.60;99.90
3846;DHT22;1938;50.812;7.738;2024-02-21T09:28:45;6.60;99.90
3846;DHT22;1938;50.812;7.738;2024-02-21T09:31:11;6.70;99.90
3846;DHT22;1938;50.812;7.738;2024-02-21T09:33:36;6.70;99.90
3846;DHT22;1938;50.812;7.738;2024-02-21T09:36:02;6.80;99.90
3846;DHT22;1938;50.812;7.738;2024-02-21T09:38:31;6.80;99.90
3846;DHT22;1938;50.812;7.738;2024-02-21T09:41:16;6.80;99.90
3846;DHT22;1938;50.812;7.738;2024-02-21T09:43:45;6.90;99.90
3846;DHT22;1938;50.812;7.738;2024-02-21T09:46:18;6.90;15.70
3846;DHT22;1938;50.812;7.738;2024-02-21T09:49:20;7.00;1.80
3846;DHT22;1938;50.812;7.738;2024-02-21T09:51:50;7.10;1.00
3846;DHT22;1938;50.812;7.738;2024-02-21T09:54:17;7.30;1.00
3846;DHT22;1938;50.812;7.738;2024-02-21T09:56:47;7.50;1.00
3846;DHT22;1938;50.812;7.738;2024-02-21T09:59:16;7.60;99.90
3846;DHT22;1938;50.812;7.738;2024-02-21T10:01:45;8.00;1.00
3846;DHT22;1938;50.812;7.738;2024-02-21T10:04:12;8.00;99.90
3846;DHT22;1938;50.812;7.738;2024-02-21T10:06:38;7.80;99.90
3846;DHT22;1938;50.812;7.738;2024-02-21T10:09:06;7.70;99.90
3846;DHT22;1938;50.812;7.738;2024-02-21T10:11:31;7.70;99.90
3846;DHT22;1938;50.812;7.738;2024-02-21T10:14:07;7.70;99.90
3846;DHT22;1938;50.812;7.738;2024-02-21T10:16:33;7.80;99.90
3846;DHT22;1938;50.812;7.738;2024-02-21T10:18:59;7.80;99.90
3846;DHT22;1938;50.812;7.738;2024-02-21T10:21:25;7.80;99.90
3846;DHT22;1938;50.812;7.738;2024-02-21T10:23:51;8.10;1.00
3846;DHT22;1938;50.812;7.738;2024-02-21T10:26:19;8.50;99.90
3846;DHT22;1938;50.812;7.738;2024-02-21T10:28:45;8.90;99.90
3846;DHT22;1938;50.812;7.738;2024-02-21T10:33:56;9.50;99.90
3846;DHT22;1938;50.812;7.738;2024-02-21T10:36:23;9.70;55.30
3846;DHT22;1938;50.812;7.738;2024-02-21T10:38:50;9.90;41.10
3846;DHT22;1938;50.812;7.738;2024-02-21T10:41:16;10.10;4.40
3846;DHT22;1938;50.812;7.738;2024-02-21T10:43:50;10.20;1.00
3846;DHT22;1938;50.812;7.738;2024-02-21T10:46:19;10.30;1.00
3846;DHT22;1938;50.812;7.738;2024-02-21T10:48:46;10.50;1.00
3846;DHT22;1938;50.812;7.738;2024-02-21T10:51:20;10.50;1.00
3846;DHT22;1938;50.812;7.738;2024-02-21T10:56:35;10.70;1.00
3846;DHT22;1938;50.812;7.738;2024-02-21T10:59:07;10.90;1.00
3846;DHT22;1938;50.812;7.738;2024-02-21T11:01:34;10.90;1.00
3846;DHT22;1938;50.812;7.738;2024-02-21T11:04:08;11.00;1.00
3846;DHT22;1938;50.812;7.738;2024-02-21T11:06:38;10.90;1.00
3846;DHT22;1938;50.812;7.738;2024-02-21T11:09:11;10.80;1.00
3846;DHT22;1938;50.812;7.738;2024-02-21T11:11:41;10.90;1.00
3846;DHT22;1938;50.812;7.738;2024-02-21T11:14:18;10.90;1.00
3846;DHT22;1938;50.812;7.738;2024-02-21T11:16:44;10.80;1.00
3846;DHT22;1938;50.812;7.738;2024-02-21T11:19:19;10.80;99.90
3846;DHT22;1938;50.812;7.738;2024-02-21T11:21:47;10.70;99.90
3846;DHT22;1938;50.812;7.738;2024-02-21T11:24:34;10.60;99.90
3846;DHT22;1938;50.812;7.738;2024-02-21T11:27:23;10.70;99.90
3846;DHT22;1938;50.812;7.738;2024-02-21T11:29:56;10.50;99.90
3846;DHT22;1938;50.812;7.738;2024-02-21T11:32:22;10.50;99.90
3846;DHT22;1938;50.812;7.738;2024-02-21T11:35:01;10.50;99.90
3846;DHT22;1938;50.812;7.738;2024-02-21T11:37:28;10.50;1.00
3846;DHT22;1938;50.812;7.738;2024-02-21T11:39:57;9.90;1.00
3846;DHT22;1938;50.812;7.738;2024-02-21T11:42:26;9.50;1.60
3846;DHT22;1938;50.812;7.738;2024-02-21T11:44:52;9.20;1.00
3846;DHT22;1938;50.812;7.738;2024-02-21T11:47:18;9.00;1.00
3846;DHT22;1938;50.812;7.738;2024-02-21T11:49:46;8.90;1.00
3846;DHT22;1938;50.812;7.738;2024-02-21T11:52:12;8.60;1.00
3846;DHT22;1938;50.812;7.738;2024-02-21T11:54:40;8.50;1.00
3846;DHT22;1938;50.812;7.738;2024-02-21T11:57:06;8.50;38.10
3846;DHT22;1938;50.812;7.738;2024-02-21T11:59:32;8.40;15.20
3846;DHT22;1938;50.812;7.738;2024-02-21T12:01:59;8.50;23.80
3846;DHT22;1938;50.812;7.738;2024-02-21T12:04:25;8.40;99.90
3846;DHT22;1938;50.812;7.738;2024-02-21T12:06:52;8.50;1.00
3846;DHT22;1938;50.812;7.738;2024-02-21T12:09:18;8.50;28.90
3846;DHT22;1938;50.812;7.738;2024-02-21T12:11:44;8.50;1.00
3846;DHT22;1938;50.812;7.738;2024-02-21T12:14:11;8.60;1.00
3846;DHT22;1938;50.812;7.738;2024-02-21T12:16:41;8.60;1.00
3846;DHT22;1938;50.812;7.738;2024-02-21T12:19:07;8.70;1.00
3846;DHT22;1938;50.812;7.738;2024-02-21T12:21:34;8.70;1.00
3846;DHT22;1938;50.812;7.738;2024-02-21T12:24:16;8.70;1.00
3846;DHT22;1938;50.812;7.738;2024-02-21T12:26:42;8.70;1.00
3846;DHT22;1938;50.812;7.738;2024-02-21T12:29:08;8.70;1.00
3846;DHT22;1938;50.812;7.738;2024-02-21T12:31:38;8.90;1.00
3846;DHT22;1938;50.812;7.738;2024-02-21T12:34:04;8.70;1.00
3846;DHT22;1938;50.812;7.738;2024-02-21T12:36:33;8.60;1.00
3846;DHT22;1938;50.812;7.738;2024-02-21T12:38:59;8.60;1.00
3846;DHT22;1938;50.812;7.738;2024-02-21T12:41:27;8.50;1.00
3846;DHT22;1938;50.812;7.738;2024-02-21T12:43:53;8.60;9.20
3846;DHT22;1938;50.812;7.738;2024-02-21T12:46:18;8.80;1.00
3846;DHT22;1938;50.812;7.738;2024-02-21T12:48:44;8.90;8.50
3846;DHT22;1938;50.812;7.738;2024-02-21T12:51:10;8.80;2.30
3846;DHT22;1938;50.812;7.738;2024-02-21T12:53:35;8.90;1.00
3846;DHT22;1938;50.812;7.738;2024-02-21T12:56:01;8.80;1.00
3846;DHT22;1938;50.812;7.738;2024-02-21T12:58:27;8.70;15.10
3846;DHT22;1938;50.812;7.738;2024-02-21T13:00:55;8.70;8.90
3846;DHT22;1938;50.812;7.738;2024-02-21T13:03:20;8.80;32.50
3846;DHT22;1938;50.812;7.738;2024-02-21T13:05:46;8.80;29.70
3846;DHT22;1938;50.812;7.738;2024-02-21T13:08:13;8.80;1.00
3846;DHT22;1938;50.812;7.738;2024-02-21T13:10:39;8.90;1.00
3846;DHT22;1938;50.812;7.738;2024-02-21T13:13:04;9.00;1.00
3846;DHT22;1938;50.812;7.738;2024-02-21T13:15:30;9.00;1.00
3846;DHT22;1938;50.812;7.738;2024-02-21T13:17:56;9.00;1.00
3846;DHT22;1938;50.812;7.738;2024-02-21T13:20:23;9.00;1.00
3846;DHT22;1938;50.812;7.738;2024-02-21T13:22:49;9.00;1.00
3846;DHT22;1938;50.812;7.738;2024-02-21T13:25:14;9.00;1.00
3846;DHT22;1938;50.812;7.738;2024-02-21T13:27:43;9.00;1.00
3846;DHT22;1938;50.812;7.738;2024-02-21T13:30:10;8.90;1.00
3846;DHT22;1938;50.812;7.738;2024-02-21T13:32:35;9.00;1.00
3846;DHT22;1938;50.812;7.738;2024-02-21T13:35:01;9.00;1.00
3846;DHT22;1938;50.812;7.738;2024-02-21T13:37:28;9.00;1.00
3846;DHT22;1938;50.812;7.738;2024-02-21T13:39:54;9.00;1.00
3846;DHT22;1938;50.812;7.738;2024-02-21T13:42:20;9.00;1.00
3846;DHT22;1938;50.812;7.738;2024-02-21T13:44:46;9.10;1.00
3846;DHT22;1938;50.812;7.738;2024-02-21T13:47:15;9.10;1.00
3846;DHT22;1938;50.812;7.738;2024-02-21T13:49:41;9.00;1.00
3846;DHT22;1938;50.812;7.738;2024-02-21T13:52:06;9.00;1.00
3846;DHT22;1938;50.812;7.738;2024-02-21T13:54:32;9.00;1.00
3846;DHT22;1938;50.812;7.738;2024-02-21T13:56:58;9.00;1.00
3846;DHT22;1938;50.812;7.738;2024-02-21T13:59:23;9.00;99.90
3846;DHT22;1938;50.812;7.738;2024-02-21T14:01:49;9.10;99.90
3846;DHT22;1938;50.812;7.738;2024-02-21T14:04:14;9.10;99.90
3846;DHT22;1938;50.812;7.738;2024-02-21T14:06:40;9.10;99.90
3846;DHT22;1938;50.812;7.738;2024-02-21T14:09:09;9.10;99.90
3846;DHT22;1938;50.812;7.738;2024-02-21T14:11:35;9.10;99.90
3846;DHT22;1938;50.812;7.738;2024-02-21T14:14:01;9.10;99.90
3846;DHT22;1938;50.812;7.738;2024-02-21T14:16:26;9.10;99.90
3846;DHT22;1938;50.812;7.738;2024-02-21T14:18:52;9.10;99.90
3846;DHT22;1938;50.812;7.738;2024-02-21T14:21:19;9.00;99.90
3846;DHT22;1938;50.812;7.738;2024-02-21T14:23:45;9.00;99.90
3846;DHT22;1938;50.812;7.738;2024-02-21T14:26:11;9.10;99.90
3846;DHT22;1938;50.812;7.738;2024-02-21T14:28:37;9.10;99.90
3846;DHT22;1938;50.812;7.738;2024-02-21T14:31:03;9.20;99.90
3846;DHT22;1938;50.812;7.738;2024-02-21T14:33:31;9.10;99.90
3846;DHT22;1938;50.812;7.738;2024-02-21T14:35:56;9.20;99.90
3846;DHT22;1938;50.812;7.738;2024-02-21T14:38:22;9.30;99.90
3846;DHT22;1938;50.812;7.738;2024-02-21T14:40:48;9.30;99.90
3846;DHT22;1938;50.812;7.738;2024-02-21T14:43:15;9.40;99.90
3846;DHT22;1938;50.812;7.738;2024-02-21T14:45:43;9.30;99.90
3846;DHT22;1938;50.812;7.738;2024-02-21T14:48:09;9.30;99.90
3846;DHT22;1938;50.812;7.738;2024-02-21T14:50:35;9.30;99.90
3846;DHT22;1938;50.812;7.738;2024-02-21T14:53:00;9.30;99.90
3846;DHT22;1938;50.812;7.738;2024-02-21T14:55:26;9.20;99.90
3846;DHT22;1938;50.812;7.738;2024-02-21T14:57:51;9.20;99.90
3846;DHT22;1938;50.812;7.738;2024-02-21T15:00:17;9.10;99.90
3846;DHT22;1938;50.812;7.738;2024-02-21T15:02:43;9.10;99.90
3846;DHT22;1938;50.812;7.738;2024-02-21T15:05:09;9.10;99.90
3846;DHT22;1938;50.812;7.738;2024-02-21T15:07:35;9.10;99.90
3846;DHT22;1938;50.812;7.738;2024-02-21T15:10:01;9.10;99.90
3846;DHT22;1938;50.812;7.738;2024-02-21T15:12:28;9.10;99.90
3846;DHT22;1938;50.812;7.738;2024-02-21T15:14:53;9.10;99.90
3846;DHT22;1938;50.812;7.738;2024-02-21T15:17:19;9.20;99.90
3846;DHT22;1938;50.812;7.738;2024-02-21T15:19:45;9.20;99.90
3846;DHT22;1938;50.812;7.738;2024-02-21T15:22:10;9.20;99.90
3846;DHT22;1938;50.812;7.738;2024-02-21T15:24:40;9.20;99.90
3846;DHT22;1938;50.812;7.738;2024-02-21T15:27:06;9.30;99.90
3846;DHT22;1938;50.812;7.738;2024-02-21T15:29:33;9.20;99.90
3846;DHT22;1938;50.812;7.738;2024-02-21T15:31:58;9.20;99.90
3846;DHT22;1938;50.812;7.738;2024-02-21T15:34:24;9.20;99.90
3846;DHT22;1938;50.812;7.738;2024-02-21T15:36:49;9.20;99.90
3846;DHT22;1938;50.812;7.738;2024-02-21T15:39:15;9.20;99.90
3846;DHT22;1938;50.812;7.738;2024-02-21T15:41:40;9.20;99.90
3846;DHT22;1938;50.812;7.738;2024-02-21T15:44:06;9.20;99.90
3846;DHT22;1938;50.812;7.738;2024-02-21T15:46:32;9.10;99.90
3846;DHT22;1938;50.812;7.738;2024-02-21T15:49:02;9.20;99.90
3846;DHT22;1938;50.812;7.738;2024-02-21T15:51:28;9.10;99.90
3846;DHT22;1938;50.812;7.738;2024-02-21T15:53:56;9.10;99.90
3846;DHT22;1938;50.812;7.738;2024-02-21T15:56:21;9.10;99.90
3846;DHT22;1938;50.812;7.738;2024-02-21T15:58:48;9.10;99.90
3846;DHT22;1938;50.812;7.738;2024-02-21T16:01:14;9.10;99.90
3846;DHT22;1938;50.812;7.738;2024-02-21T16:03:40;9.10;99.90
3846;DHT22;1938;50.812;7.738;2024-02-21T16:06:08;9.10;99.90
3846;DHT22;1938;50.812;7.738;2024-02-21T16:08:34;9.00;99.90
3846;DHT22;1938;50.812;7.738;2024-02-21T16:11:02;9.00;99.90
3846;DHT22;1938;50.812;7.738;2024-02-21T16:13:28;9.00;99.90
3846;DHT22;1938;50.812;7.738;2024-02-21T16:15:54;9.00;99.90
3846;DHT22;1938;50.812;7.738;2024-02-21T16:18:19;8.90;99.90
3846;DHT22;1938;50.812;7.738;2024-02-21T16:20:46;8.90;99.90
3846;DHT22;1938;50.812;7.738;2024-02-21T16:23:13;8.90;99.90
3846;DHT22;1938;50.812;7.738;2024-02-21T16:25:40;9.00;99.90